Time;durP1;ratioP1;P1;durP2;ratioP2;P2;SDS_P1;SDS_P2;PMS_P1;PMS_P2;Temp;Humidity;BMP_temperature;BMP_pressure;BME280_temperature;BME280_humidity;BME280_pressure;Samples;Min_cycle;Max_cycle;Signal;HPM_P1;HPM_P2
2022/02/27 00:00:40;;;;;;;8.43;3.75;;;;;;;-0.91;80.08;97724.94;5041073;28;20484;-66
2022/02/27 00:03:06;;;;;;;8.38;3.47;;;;;;;-0.92;80.20;97731.38;5038417;28;20045;-66
2022/02/27 00:05:31;;;;;;;9.45;2.95;;;;;;;-0.94;80.56;97730.06;5043185;28;20045;-65
2022/02/27 00:07:57;;;;;;;8.32;3.42;;;;;;;-1.00;80.56;97727.34;5042233;28;20135;-65
2022/02/27 00:10:22;;;;;;;11.77;3.20;;;;;;;-1.00;80.72;97734.63;5034726;28;20182;-65
2022/02/27 00:12:49;;;;;;;10.38;3.03;;;;;;;-1.03;80.80;97727.88;5042726;28;20059;-66
2022/02/27 00:15:14;;;;;;;12.07;4.03;;;;;;;-1.02;81.00;97717.94;5035977;28;20450;-67
2022/02/27 00:17:40;;;;;;;6.65;3.08;;;;;;;-1.01;81.11;97723.06;5024653;28;20037;-66
2022/02/27 00:20:08;;;;;;;9.27;3.72;;;;;;;-1.05;81.54;97719.28;5019082;28;20095;-67
2022/02/27 00:22:34;;;;;;;10.93;3.40;;;;;;;-1.04;81.81;97717.41;5042974;28;20065;-64
2022/02/27 00:24:59;;;;;;;14.18;2.80;;;;;;;-0.98;81.69;97719.03;5042396;28;20524;-65
2022/02/27 00:27:25;;;;;;;18.17;4.78;;;;;;;-1.04;82.40;97728.16;5036877;28;20048;-67
2022/02/27 00:29:50;;;;;;;11.75;3.10;;;;;;;-0.91;82.09;97710.72;5041645;28;20057;-67
2022/02/27 00:32:16;;;;;;;10.43;4.07;;;;;;;-1.04;82.85;97718.22;5037180;28;20041;-67
2022/02/27 00:34:41;;;;;;;5.45;2.72;;;;;;;-1.11;83.52;97716.88;5041503;28;20421;-67
2022/02/27 00:37:07;;;;;;;8.60;3.60;;;;;;;-1.00;82.84;97718.50;5037466;28;20098;-64
2022/02/27 00:39:32;;;;;;;10.07;3.63;;;;;;;-1.08;83.53;97714.44;5023431;28;20132;-64
2022/02/27 00:41:57;;;;;;;8.85;2.92;;;;;;;-1.12;83.89;97715.22;5023302;28;20055;-66
2022/02/27 00:44:23;;;;;;;10.10;3.40;;;;;;;-1.03;83.45;97719.81;5036949;28;20049;-66
2022/02/27 00:46:49;;;;;;;6.82;2.90;;;;;;;-1.00;83.03;97726.56;5042461;28;20036;-65
2022/02/27 00:49:14;;;;;;;12.48;4.20;;;;;;;-1.03;83.49;97727.88;5038704;28;20176;-66
2022/02/27 00:51:41;;;;;;;17.63;5.28;;;;;;;-1.00;83.05;97721.19;5025501;28;20401;-66
2022/02/27 00:54:07;;;;;;;14.95;4.18;;;;;;;-1.01;83.40;97719.53;5035345;28;20114;-66
2022/02/27 00:56:33;;;;;;;8.48;2.92;;;;;;;-0.98;83.23;97709.06;5041259;28;20426;-66
2022/02/27 00:58:58;;;;;;;8.75;3.22;;;;;;;-1.00;83.26;97713.91;5041646;28;20124;-67
2022/02/27 01:01:24;;;;;;;7.90;3.47;;;;;;;-1.07;83.73;97717.94;5036528;28;20536;-65
2022/02/27 01:03:49;;;;;;;10.52;3.30;;;;;;;-1.10;84.18;97708.50;5040623;28;20108;-64
2022/02/27 01:06:16;;;;;;;14.48;3.75;;;;;;;-1.05;83.81;97710.41;5035640;28;20045;-67
2022/02/27 01:08:42;;;;;;;9.13;2.97;;;;;;;-1.16;84.67;97720.34;5027271;28;20041;-62
2022/02/27 01:11:08;;;;;;;7.97;3.47;;;;;;;-1.18;85.10;97706.34;5031543;28;20562;-64
2022/02/27 01:13:33;;;;;;;10.60;3.13;;;;;;;-1.16;85.04;97696.13;5023340;28;20049;-65
2022/02/27 01:15:59;;;;;;;10.63;3.25;;;;;;;-1.19;85.14;97702.03;5014009;28;20056;-65
2022/02/27 01:18:24;;;;;;;11.32;3.25;;;;;;;-1.25;85.73;97687.78;5034406;28;20512;-65
2022/02/27 01:20:50;;;;;;;13.77;3.88;;;;;;;-1.24;85.88;97694.78;5021536;28;20071;-65
2022/02/27 01:23:15;;;;;;;8.00;3.30;;;;;;;-1.30;86.38;97698.50;5038770;28;20071;-65
2022/02/27 01:25:41;;;;;;;8.35;3.00;;;;;;;-1.36;87.05;97699.59;5042071;28;20063;-65
2022/02/27 01:28:06;;;;;;;14.57;4.32;;;;;;;-1.39;87.28;97692.03;5036636;28;20041;-65
2022/02/27 01:30:32;;;;;;;8.85;3.45;;;;;;;-1.32;86.83;97683.75;5038747;28;20140;-66
2022/02/27 01:32:59;;;;;;;13.30;4.53;;;;;;;-1.23;86.23;97672.19;5019630;28;20042;-66
2022/02/27 01:35:24;;;;;;;7.45;2.53;;;;;;;-1.31;87.07;97693.44;5017063;28;20041;-68
2022/02/27 01:37:50;;;;;;;10.43;3.58;;;;;;;-1.22;86.32;97681.88;5021967;28;20041;-64
2022/02/27 01:40:15;;;;;;;11.95;3.15;;;;;;;-1.30;86.82;97695.81;5017872;28;20115;-65
2022/02/27 01:42:40;;;;;;;13.77;3.90;;;;;;;-1.37;87.44;97701.47;5025247;28;20037;-65
2022/02/27 01:45:07;;;;;;;7.32;3.20;;;;;;;-1.30;86.80;97695.81;5034949;28;20141;-65
2022/02/27 01:47:32;;;;;;;8.70;3.50;;;;;;;-1.27;86.38;97686.44;5023836;28;20037;-65
2022/02/27 01:49:58;;;;;;;10.05;3.30;;;;;;;-1.18;85.58;97676.78;5021591;28;20045;-64
2022/02/27 01:52:23;;;;;;;8.70;3.55;;;;;;;-1.30;86.80;97697.72;5018485;28;20276;-65
2022/02/27 01:54:49;;;;;;;15.35;3.60;;;;;;;-1.22;85.98;97689.94;5039084;28;20041;-64
2022/02/27 01:57:14;;;;;;;10.43;3.50;;;;;;;-1.25;86.24;97682.41;5033466;28;20045;-65
2022/02/27 01:59:40;;;;;;;6.68;3.20;;;;;;;-1.19;86.10;97686.72;5019898;28;20066;-65
2022/02/27 02:02:07;;;;;;;13.43;3.60;;;;;;;-1.21;86.01;97688.84;5022633;28;20036;-65
2022/02/27 02:04:33;;;;;;;10.02;3.53;;;;;;;-1.19;85.65;97672.47;5045306;28;20102;-66
2022/02/27 02:06:59;;;;;;;7.03;3.00;;;;;;;-1.20;85.81;97685.09;5026110;28;20060;-65
2022/02/27 02:09:25;;;;;;;11.40;3.83;;;;;;;-1.21;86.02;97682.69;5040018;28;20079;-65
2022/02/27 02:11:51;;;;;;;13.82;3.60;;;;;;;-1.22;86.31;97681.88;5044831;28;20045;-65
2022/02/27 02:14:17;;;;;;;10.70;3.97;;;;;;;-1.23;86.56;97676.75;5036525;28;20065;-68
2022/02/27 02:16:45;;;;;;;12.07;3.55;;;;;;;-1.23;86.36;97687.53;5044346;28;20786;-64
2022/02/27 02:19:12;;;;;;;12.55;3.00;;;;;;;-1.27;86.84;97683.75;5039521;28;20045;-65
2022/02/27 02:21:44;;;;;;;10.63;3.30;;;;;;;-1.17;86.19;97681.06;5055996;28;20121;-65
2022/02/27 02:24:11;;;;;;;12.05;3.78;;;;;;;-1.30;87.21;97685.06;5056824;28;20045;-63
2022/02/27 02:26:38;;;;;;;10.75;3.75;;;;;;;-1.31;87.13;97694.22;5045851;28;20296;-64
2022/02/27 02:29:05;;;;;;;14.15;3.35;;;;;;;-1.38;87.50;97683.72;5037633;28;20397;-66
2022/02/27 02:31:35;;;;;;;9.05;3.58;;;;;;;-1.25;86.89;97687.78;5043457;28;20045;-65
2022/02/27 02:34:11;;;;;;;7.20;3.40;;;;;;;-1.30;86.98;97674.31;5045084;28;20110;-66
2022/02/27 02:36:37;;;;;;;12.00;3.88;;;;;;;-1.20;85.74;97674.34;5026062;28;20420;-65
2022/02/27 02:39:06;;;;;;;7.65;3.50;;;;;;;-1.26;86.31;97678.13;5041916;28;20095;-67
2022/02/27 02:41:32;;;;;;;18.80;3.75;;;;;;;-1.40;87.28;97672.44;5044153;28;20048;-65
2022/02/27 02:43:57;;;;;;;9.80;3.40;;;;;;;-1.17;85.78;97663.06;5041063;28;20116;-64
2022/02/27 02:46:23;;;;;;;8.73;3.58;;;;;;;-1.20;85.73;97670.88;5036670;28;20443;-66
2022/02/27 02:48:49;;;;;;;9.45;3.20;;;;;;;-1.24;86.21;97675.97;5009438;28;20060;-68
2022/02/27 02:51:15;;;;;;;12.48;4.22;;;;;;;-1.23;86.07;97671.38;5039337;28;20040;-66
2022/02/27 02:53:40;;;;;;;9.25;3.53;;;;;;;-1.21;85.98;97670.03;5044767;28;20493;-67
2022/02/27 02:56:07;;;;;;;11.35;3.47;;;;;;;-1.27;86.72;97665.75;5021188;28;20036;-66
2022/02/27 02:58:35;;;;;;;11.13;3.42;;;;;;;-1.31;86.84;97672.72;5041504;28;20083;-66
2022/02/27 03:01:01;;;;;;;10.52;3.25;;;;;;;-1.24;86.22;97667.91;5026428;28;20029;-66
2022/02/27 03:03:27;;;;;;;11.02;3.00;;;;;;;-1.28;86.33;97666.81;5021427;28;20125;-66
2022/02/27 03:05:53;;;;;;;7.53;3.22;;;;;;;-1.31;86.98;97670.03;5042022;28;20497;-66
2022/02/27 03:08:18;;;;;;;10.52;3.33;;;;;;;-1.25;86.17;97665.47;5037152;28;20033;-66
2022/02/27 03:10:44;;;;;;;9.32;3.45;;;;;;;-1.29;86.54;97667.09;5044058;28;20524;-64
2022/02/27 03:13:10;;;;;;;13.05;3.45;;;;;;;-1.38;86.98;97670.28;5038551;28;20106;-66
2022/02/27 03:15:35;;;;;;;12.68;3.42;;;;;;;-1.30;86.58;97676.22;5025586;28;20052;-69
2022/02/27 03:18:01;;;;;;;13.52;3.10;;;;;;;-1.38;87.11;97662.22;5026893;28;20128;-70
2022/02/27 03:20:26;;;;;;;9.90;3.45;;;;;;;-1.30;86.52;97671.63;5039637;28;20393;-68
2022/02/27 03:22:51;;;;;;;11.73;3.40;;;;;;;-1.31;86.27;97671.94;5043342;28;20493;-68
2022/02/27 03:25:17;;;;;;;13.07;3.60;;;;;;;-1.18;84.85;97674.09;5039069;28;20045;-64
2022/02/27 03:27:42;;;;;;;10.68;3.53;;;;;;;-1.28;85.71;97677.56;5044452;28;20405;-65
2022/02/27 03:30:08;;;;;;;12.80;3.30;;;;;;;-1.37;86.25;97669.22;5038495;28;20037;-65
2022/02/27 03:32:34;;;;;;;15.48;3.53;;;;;;;-1.36;85.98;97686.16;5043322;28;20041;-65
2022/02/27 03:34:59;;;;;;;9.15;2.92;;;;;;;-1.30;85.63;97668.16;5041714;28;20067;-66
2022/02/27 03:37:24;;;;;;;9.15;2.60;;;;;;;-1.27;84.68;97664.94;5035786;28;20132;-66
2022/02/27 03:39:51;;;;;;;8.27;3.05;;;;;;;-1.26;84.42;97666.53;5042581;28;20036;-66
2022/02/27 03:42:17;;;;;;;5.80;3.28;;;;;;;-1.27;84.27;97668.44;5037381;28;20036;-64
2022/02/27 03:44:42;;;;;;;11.57;3.15;;;;;;;-1.37;84.79;97665.72;5037273;28;20497;-67
2022/02/27 03:47:08;;;;;;;9.65;3.35;;;;;;;-1.30;84.09;97663.56;5052395;28;20033;-66
2022/02/27 03:49:33;;;;;;;9.95;2.88;;;;;;;-1.32;84.04;97660.34;5052859;28;20033;-65
2022/02/27 03:51:58;;;;;;;11.00;3.00;;;;;;;-1.46;84.91;97653.88;5052909;28;20028;-66
2022/02/27 03:54:24;;;;;;;9.18;3.85;;;;;;;-1.36;83.59;97654.69;5051294;28;20040;-64
2022/02/27 03:56:49;;;;;;;7.35;3.10;;;;;;;-1.35;83.39;97655.53;5037118;28;20033;-63
2022/02/27 03:59:15;;;;;;;13.68;3.05;;;;;;;-1.29;82.88;97650.97;5031985;28;20037;-64
2022/02/27 04:01:40;;;;;;;9.10;2.90;;;;;;;-1.35;83.22;97652.84;5051910;28;20017;-63
2022/02/27 04:04:06;;;;;;;7.72;3.22;;;;;;;-1.42;83.27;97647.72;5051762;28;20308;-65
2022/02/27 04:06:31;;;;;;;10.23;3.70;;;;;;;-1.35;82.99;97652.84;5051953;28;20033;-64
2022/02/27 04:08:57;;;;;;;13.18;3.55;;;;;;;-1.37;82.89;97649.59;5052288;28;20508;-64
2022/02/27 04:11:22;;;;;;;6.85;2.90;;;;;;;-1.28;82.37;97653.34;5051879;28;20033;-64
2022/02/27 04:13:48;;;;;;;11.32;3.25;;;;;;;-1.33;82.54;97642.63;5034064;28;20025;-64
2022/02/27 04:16:13;;;;;;;8.00;2.60;;;;;;;-1.37;82.92;97653.09;5051425;28;20037;-62
2022/02/27 04:18:40;;;;;;;6.80;2.70;;;;;;;-1.38;82.33;97651.47;5052175;28;20037;-64
2022/02/27 04:21:05;;;;;;;9.43;3.83;;;;;;;-1.34;82.43;97654.44;5052062;28;20378;-64
2022/02/27 04:23:31;;;;;;;8.85;3.90;;;;;;;-1.42;82.96;97658.47;5052276;28;20090;-64
2022/02/27 04:25:56;;;;;;;11.23;2.90;;;;;;;-1.45;83.44;97650.13;5050313;28;20474;-64
2022/02/27 04:28:22;;;;;;;9.88;3.25;;;;;;;-1.35;82.51;97668.97;5051787;28;20037;-65
2022/02/27 04:30:47;;;;;;;8.07;3.05;;;;;;;-1.47;83.32;97665.69;5033845;28;20043;-65
2022/02/27 04:33:13;;;;;;;11.68;3.47;;;;;;;-1.57;84.46;97671.84;5051857;28;20033;-65
2022/02/27 04:35:38;;;;;;;8.30;2.97;;;;;;;-1.67;85.15;97667.25;5051699;28;20025;-65
2022/02/27 04:38:04;;;;;;;8.13;3.35;;;;;;;-1.65;85.19;97673.16;5046501;28;20064;-65
2022/02/27 04:40:32;;;;;;;8.98;3.03;;;;;;;-1.67;85.46;97659.19;5051503;28;20124;-65
2022/02/27 04:42:57;;;;;;;8.48;3.35;;;;;;;-1.71;85.85;97668.88;5051411;28;20362;-64
2022/02/27 04:45:23;;;;;;;7.10;3.40;;;;;;;-1.76;86.31;97668.84;5033343;28;20060;-65
2022/02/27 04:47:49;;;;;;;8.25;2.90;;;;;;;-1.78;86.62;97669.09;5051487;28;20087;-65
2022/02/27 04:50:14;;;;;;;9.18;3.20;;;;;;;-1.81;86.47;97663.44;5051493;28;20029;-63
2022/02/27 04:52:40;;;;;;;12.32;4.03;;;;;;;-1.69;86.05;97673.94;5051523;28;20120;-65
2022/02/27 04:55:06;;;;;;;10.75;3.17;;;;;;;-1.78;86.58;97668.28;5047162;28;20108;-65
2022/02/27 04:57:32;;;;;;;10.95;3.05;;;;;;;-1.72;86.43;97667.22;4993385;28;1093904;-63
2022/02/27 04:59:57;;;;;;;7.28;3.97;;;;;;;-1.74;86.23;97666.69;5032081;28;20041;-66
2022/02/27 05:02:22;;;;;;;11.32;3.25;;;;;;;-1.82;86.82;97673.38;5032382;28;20041;-65
2022/02/27 05:04:48;;;;;;;11.25;3.35;;;;;;;-1.71;86.18;97671.53;5031731;28;20450;-66
2022/02/27 05:07:13;;;;;;;7.68;2.85;;;;;;;-1.66;86.32;97676.91;5031348;28;20033;-65
2022/02/27 05:09:38;;;;;;;8.43;3.00;;;;;;;-1.56;85.24;97673.47;5031827;28;20041;-65
2022/02/27 05:12:04;;;;;;;8.38;3.30;;;;;;;-1.66;86.02;97671.53;5031929;28;20128;-65
2022/02/27 05:14:29;;;;;;;8.18;2.83;;;;;;;-1.70;86.22;97664.28;5032427;28;20029;-65
2022/02/27 05:16:55;;;;;;;8.50;2.70;;;;;;;-1.64;86.07;97663.22;5031783;28;20045;-66
2022/02/27 05:19:20;;;;;;;7.03;3.47;;;;;;;-1.57;85.63;97669.16;5031696;28;20029;-66
2022/02/27 05:21:46;;;;;;;8.32;3.20;;;;;;;-1.66;86.09;97662.69;5032008;28;20375;-64
2022/02/27 05:24:11;;;;;;;8.05;3.20;;;;;;;-1.66;86.01;97663.47;5032269;28;20040;-66
2022/02/27 05:26:37;;;;;;;12.75;3.00;;;;;;;-1.69;86.31;97671.25;5029989;28;20037;-66
2022/02/27 05:29:04;;;;;;;8.65;3.45;;;;;;;-1.69;86.58;97669.41;5035780;28;20474;-66
2022/02/27 05:31:30;;;;;;;9.50;2.83;;;;;;;-1.75;86.95;97671.25;5039242;28;20397;-66
2022/02/27 05:33:55;;;;;;;9.88;3.30;;;;;;;-1.63;87.04;97680.97;5025206;28;20056;-65
2022/02/27 05:36:21;;;;;;;7.57;3.25;;;;;;;-1.67;87.43;97678.00;5070515;28;20035;-66
2022/02/27 05:38:47;;;;;;;13.75;3.65;;;;;;;-1.72;87.50;97677.97;5031624;28;20444;-66
2022/02/27 05:41:13;;;;;;;6.70;3.53;;;;;;;-1.74;88.06;97688.19;5036551;28;20255;-66
2022/02/27 05:43:40;;;;;;;7.05;3.83;;;;;;;-1.79;88.41;97690.84;5017801;28;20029;-65
2022/02/27 05:46:06;;;;;;;8.27;3.28;;;;;;;-1.79;88.93;97693.53;5034830;28;20329;-66
2022/02/27 05:48:31;;;;;;;12.13;3.90;;;;;;;-1.84;89.52;97688.13;5035088;28;20033;-66
2022/02/27 05:50:57;;;;;;;10.50;3.58;;;;;;;-1.81;89.77;97692.97;5035636;28;20112;-66
2022/02/27 05:53:22;;;;;;;12.48;4.10;;;;;;;-1.78;89.83;97690.56;5017885;28;20033;-65
2022/02/27 05:55:47;;;;;;;13.48;5.30;;;;;;;-1.91;90.91;97696.41;5034965;28;20029;-66
2022/02/27 05:58:13;;;;;;;11.15;4.38;;;;;;;-1.89;91.41;97693.47;5035737;28;20040;-68
2022/02/27 06:00:38;;;;;;;11.95;4.47;;;;;;;-1.89;91.99;97696.16;5002318;28;20031;-65
2022/02/27 06:03:04;;;;;;;17.33;5.05;;;;;;;-1.98;92.50;97698.53;5029808;28;20057;-65
2022/02/27 06:05:29;;;;;;;13.25;4.72;;;;;;;-2.09;92.83;97699.53;5059053;28;20055;-67
2022/02/27 06:07:56;;;;;;;12.68;3.92;;;;;;;-1.98;93.13;97707.41;5058308;28;20029;-66
2022/02/27 06:10:21;;;;;;;9.07;4.18;;;;;;;-2.08;93.95;97709.22;5056496;28;20078;-66
2022/02/27 06:12:48;;;;;;;11.90;4.68;;;;;;;-2.09;94.09;97710.28;5055084;28;20113;-65
2022/02/27 06:15:15;;;;;;;11.15;4.30;;;;;;;-2.03;93.45;97710.06;5055821;28;20021;-64
2022/02/27 06:17:40;;;;;;;25.02;12.70;;;;;;;-2.03;94.14;97718.13;5055490;28;20033;-64
2022/02/27 06:20:07;;;;;;;14.27;8.38;;;;;;;-2.06;94.21;97715.94;5053617;28;20057;-63
2022/02/27 06:22:32;;;;;;;11.73;5.57;;;;;;;-2.04;94.01;97716.47;5055890;28;20029;-64
2022/02/27 06:24:58;;;;;;;20.67;10.55;;;;;;;-2.05;94.16;97719.44;5056291;28;20116;-64
2022/02/27 06:27:24;;;;;;;12.73;9.00;;;;;;;-2.03;94.26;97717.31;5053810;28;20135;-65
2022/02/27 06:29:49;;;;;;;14.00;5.03;;;;;;;-1.98;93.82;97718.16;5056342;28;20036;-65
2022/02/27 06:32:14;;;;;;;11.90;6.28;;;;;;;-2.04;94.19;97721.84;5056303;28;20033;-66
2022/02/27 06:34:40;;;;;;;14.50;7.78;;;;;;;-1.95;93.56;97725.66;5054918;28;20402;-65
2022/02/27 06:37:05;;;;;;;14.43;9.18;;;;;;;-1.91;93.42;97728.63;5037366;28;20032;-63
2022/02/27 06:39:30;;;;;;;21.25;10.50;;;;;;;-1.87;93.54;97729.75;5056288;28;20037;-65
2022/02/27 06:41:56;;;;;;;12.60;7.03;;;;;;;-1.79;92.78;97723.88;5055094;28;20033;-65
2022/02/27 06:44:21;;;;;;;37.90;15.80;;;;;;;-1.74;92.97;97725.78;5055242;28;20448;-65
2022/02/27 06:46:47;;;;;;;21.05;8.48;;;;;;;-1.63;92.01;97723.94;5037610;28;20029;-66
2022/02/27 06:49:12;;;;;;;18.90;9.35;;;;;;;-1.61;92.05;97725.28;5054976;28;20075;-66
2022/02/27 06:51:37;;;;;;;14.32;6.45;;;;;;;-1.54;91.84;97719.69;5035594;28;20033;-65
2022/02/27 06:54:03;;;;;;;19.95;7.53;;;;;;;-1.35;91.09;97717.34;5017937;28;20033;-67
2022/02/27 06:56:29;;;;;;;15.82;6.47;;;;;;;-1.14;89.79;97717.38;5018543;28;20691;-65
2022/02/27 06:58:55;;;;;;;14.13;6.05;;;;;;;-0.97;88.49;97715.28;5055716;28;20024;-65
2022/02/27 07:01:20;;;;;;;19.40;7.97;;;;;;;-0.71;87.57;97721.47;5055311;28;20029;-66
2022/02/27 07:03:46;;;;;;;14.43;9.10;;;;;;;-0.57;86.95;97726.34;5053766;28;20021;-66
2022/02/27 07:06:11;;;;;;;13.93;6.07;;;;;;;-0.45;86.24;97726.84;5054762;28;20513;-65
2022/02/27 07:08:36;;;;;;;12.50;6.10;;;;;;;-0.44;85.94;97731.16;5055469;28;20047;-65
2022/02/27 07:11:03;;;;;;;13.98;4.95;;;;;;;-0.43;85.24;97716.66;5052512;28;20591;-67
2022/02/27 07:13:32;;;;;;;18.52;12.65;;;;;;;-0.28;85.28;97730.06;5052782;28;20029;-65
2022/02/27 07:15:57;;;;;;;16.08;9.75;;;;;;;0.02;83.53;97723.03;5027054;28;20053;-66
2022/02/27 07:18:23;;;;;;;10.23;5.05;;;;;;;-0.03;83.43;97733.81;5051541;28;20067;-67
2022/02/27 07:20:48;;;;;;;10.70;4.80;;;;;;;0.04;82.85;97742.44;5055497;28;20033;-66
2022/02/27 07:23:14;;;;;;;12.57;5.80;;;;;;;-0.01;82.96;97728.97;5053186;28;20112;-66
2022/02/27 07:25:40;;;;;;;9.52;4.97;;;;;;;0.15;83.36;97741.31;5036102;28;20381;-66
2022/02/27 07:28:05;;;;;;;17.80;5.55;;;;;;;-0.03;82.98;97736.50;5054933;28;20068;-66
2022/02/27 07:30:31;;;;;;;24.35;5.72;;;;;;;0.13;82.30;97737.28;5054226;28;20029;-67
2022/02/27 07:32:57;;;;;;;13.27;4.78;;;;;;;0.17;81.93;97738.34;5054840;28;20033;-66
2022/02/27 07:35:22;;;;;;;11.52;4.88;;;;;;;0.36;80.83;97746.63;5055609;28;20021;-67
2022/02/27 07:37:48;;;;;;;15.57;5.22;;;;;;;0.51;80.41;97746.59;5055665;28;20494;-66
2022/02/27 07:40:13;;;;;;;12.45;5.68;;;;;;;0.56;80.29;97743.88;5053775;28;20062;-67
2022/02/27 07:42:39;;;;;;;10.23;4.53;;;;;;;0.67;80.49;97749.25;5054804;28;20040;-66
2022/02/27 07:45:05;;;;;;;10.18;5.20;;;;;;;0.74;79.81;97749.75;5055021;28;20037;-66
2022/02/27 07:47:31;;;;;;;10.27;4.72;;;;;;;0.75;77.61;97748.66;5054569;28;20440;-67
2022/02/27 07:49:56;;;;;;;16.52;4.93;;;;;;;0.76;78.52;97753.78;5050549;28;20025;-65
2022/02/27 07:52:22;;;;;;;17.88;8.32;;;;;;;0.92;78.40;97753.72;5052931;28;20110;-66
2022/02/27 07:54:47;;;;;;;12.32;5.25;;;;;;;1.42;75.72;97756.34;5054691;28;20430;-66
2022/02/27 07:57:13;;;;;;;14.82;5.85;;;;;;;1.49;74.43;97754.94;5036202;28;20040;-66
2022/02/27 07:59:38;;;;;;;16.02;5.25;;;;;;;1.28;75.10;97757.00;5054587;28;20029;-66
2022/02/27 08:02:04;;;;;;;11.80;5.53;;;;;;;1.21;75.21;97758.41;5054426;28;20039;-66
2022/02/27 08:04:29;;;;;;;8.27;4.85;;;;;;;1.50;74.59;97766.56;5052209;28;20429;-66
2022/02/27 08:06:55;;;;;;;12.38;5.70;;;;;;;1.29;74.72;97769.38;5054218;28;20066;-66
2022/02/27 08:09:20;;;;;;;13.10;5.65;;;;;;;1.26;74.38;97764.56;5054252;28;20090;-66
2022/02/27 08:11:45;;;;;;;8.90;4.72;;;;;;;1.14;75.30;97773.00;5054385;28;20029;-66
2022/02/27 08:14:11;;;;;;;11.18;4.82;;;;;;;1.57;73.24;97758.94;5052875;28;20044;-66
2022/02/27 08:16:36;;;;;;;11.82;5.10;;;;;;;1.33;74.33;97775.03;5054611;28;20048;-66
2022/02/27 08:19:02;;;;;;;14.30;5.60;;;;;;;1.45;74.04;97753.09;5038249;28;20139;-66
2022/02/27 08:21:27;;;;;;;11.48;4.70;;;;;;;1.45;74.49;97780.88;5054591;28;20032;-65
2022/02/27 08:23:53;;;;;;;14.13;5.57;;;;;;;1.62;73.28;97777.00;5055152;28;20477;-68
2022/02/27 08:26:18;;;;;;;9.70;5.45;;;;;;;1.71;72.97;97770.72;5036037;28;20053;-65
2022/02/27 08:28:44;;;;;;;17.17;6.72;;;;;;;1.75;72.09;97772.84;5053532;28;20033;-66
2022/02/27 08:31:09;;;;;;;12.13;5.32;;;;;;;2.08;72.32;97771.19;5054160;28;20449;-65
2022/02/27 08:33:35;;;;;;;12.30;6.75;;;;;;;2.23;71.01;97771.06;5053326;28;20032;-65
2022/02/27 08:36:00;;;;;;;10.88;5.30;;;;;;;2.46;70.05;97769.44;5053622;28;20108;-65
2022/02/27 08:38:26;;;;;;;17.58;7.07;;;;;;;1.89;71.81;97768.41;5053837;28;20104;-65
2022/02/27 08:40:52;;;;;;;13.75;6.00;;;;;;;2.21;70.31;97777.84;5054551;28;20041;-66
2022/02/27 08:43:18;;;;;;;11.23;5.60;;;;;;;1.99;70.96;97770.22;5052855;28;20036;-66
2022/02/27 08:45:43;;;;;;;12.88;6.18;;;;;;;1.94;70.55;97760.25;5053286;28;20481;-65
2022/02/27 08:48:09;;;;;;;8.75;5.18;;;;;;;1.84;71.54;97773.88;5052433;28;20060;-65
2022/02/27 08:50:34;;;;;;;16.13;6.22;;;;;;;2.16;71.38;97777.88;5053677;28;20056;-65
2022/02/27 08:53:00;;;;;;;13.15;5.28;;;;;;;2.23;71.17;97770.25;5053412;28;20056;-66
2022/02/27 08:55:25;;;;;;;11.60;4.78;;;;;;;2.24;69.93;97775.38;5033493;28;20358;-66
2022/02/27 08:57:51;;;;;;;10.88;5.40;;;;;;;2.49;68.80;97773.50;5053615;28;20033;-67
2022/02/27 09:00:18;;;;;;;12.45;5.20;;;;;;;2.13;69.57;97773.06;5053480;28;20040;-66
2022/02/27 09:02:44;;;;;;;14.63;5.30;;;;;;;2.85;69.62;97768.47;5056933;28;20131;-67
2022/02/27 09:05:09;;;;;;;10.23;4.57;;;;;;;3.54;66.73;97775.38;5060190;28;20043;-67
2022/02/27 09:07:35;;;;;;;11.90;5.60;;;;;;;3.24;66.20;97766.59;5058853;28;20111;-67
2022/02/27 09:10:03;;;;;;;9.80;4.47;;;;;;;2.79;66.77;97766.09;5058558;28;20393;-67
2022/02/27 09:12:28;;;;;;;9.20;4.45;;;;;;;3.03;67.46;97761.47;5057617;28;20065;-67
2022/02/27 09:14:54;;;;;;;10.55;4.65;;;;;;;3.43;63.88;97764.69;5057256;28;20029;-68
2022/02/27 09:17:20;;;;;;;8.70;4.75;;;;;;;3.52;64.41;97764.81;5041975;28;20075;-68
2022/02/27 09:19:46;;;;;;;10.93;5.05;;;;;;;3.32;63.99;97755.09;5071717;28;20025;-68
2022/02/27 09:22:12;;;;;;;9.80;4.18;;;;;;;2.98;65.93;97760.72;5062849;28;20033;-66
2022/02/27 09:24:38;;;;;;;12.05;4.70;;;;;;;3.45;61.23;97750.84;5062513;22;20035;-68
2022/02/27 09:27:04;;;;;;;8.98;3.95;;;;;;;3.31;60.18;97756.19;5050525;28;20040;-68
2022/02/27 09:29:29;;;;;;;13.90;5.22;;;;;;;3.81;61.38;97756.50;5044420;28;20116;-65
2022/02/27 09:31:55;;;;;;;8.02;5.05;;;;;;;3.38;64.97;97763.97;5051476;28;20029;-68
2022/02/27 09:34:21;;;;;;;15.13;7.72;;;;;;;3.67;64.00;97752.13;5050993;28;20082;-69
2022/02/27 09:36:46;;;;;;;11.15;6.22;;;;;;;4.10;62.37;97747.34;5055134;28;20044;-69
2022/02/27 09:39:12;;;;;;;12.10;5.07;;;;;;;3.74;62.73;97761.50;5056691;28;20037;-67
2022/02/27 09:41:37;;;;;;;10.65;6.25;;;;;;;3.65;61.19;97738.88;5073418;28;20395;-67
2022/02/27 09:44:04;;;;;;;17.58;7.43;;;;;;;3.89;61.57;97736.06;5077287;28;20127;-67
2022/02/27 09:46:31;;;;;;;12.48;5.82;;;;;;;3.89;61.95;97749.63;5075049;28;20538;-69
2022/02/27 09:48:58;;;;;;;6.70;3.97;;;;;;;4.67;59.79;97747.09;5046363;28;20057;-67
2022/02/27 09:51:24;;;;;;;9.30;4.68;;;;;;;4.29;58.51;97738.34;5055685;28;20040;-67
2022/02/27 09:53:50;;;;;;;9.38;3.63;;;;;;;4.30;59.49;97737.22;5025030;28;20132;-68
2022/02/27 09:56:16;;;;;;;8.25;4.20;;;;;;;3.92;56.95;97745.50;5055734;28;20401;-67
2022/02/27 09:58:42;;;;;;;8.05;3.70;;;;;;;4.02;57.21;97746.13;5024723;28;20029;-67
2022/02/27 10:01:08;;;;;;;9.45;4.50;;;;;;;4.55;56.98;97744.88;5035138;28;20160;-71
2022/02/27 10:03:33;;;;;;;8.10;3.90;;;;;;;4.34;56.60;97727.38;5034570;28;20493;-69
2022/02/27 10:06:06;;;;;;;8.13;4.20;;;;;;;4.04;56.98;97715.22;5033963;28;20034;-68
2022/02/27 10:08:45;;;;;;;6.88;3.80;;;;;;;4.15;55.69;97741.81;5040757;28;20032;-68
2022/02/27 10:11:16;;;;;;;7.25;3.78;;;;;;;4.21;55.27;97751.50;5063068;28;20029;-69
2022/02/27 10:13:53;;;;;;;6.63;3.80;;;;;;;4.69;56.87;97752.22;5073450;28;20038;-70
2022/02/27 10:16:23;;;;;;;9.23;3.90;;;;;;;4.74;53.72;97749.41;5073520;28;20092;-70
2022/02/27 10:18:54;;;;;;;6.95;3.83;;;;;;;5.02;53.79;97749.34;5058376;28;20098;-69
2022/02/27 10:21:23;;;;;;;9.07;4.35;;;;;;;5.15;54.63;97743.13;5068454;28;20524;-67
2022/02/27 10:24:07;;;;;;;9.52;3.63;;;;;;;5.34;52.72;97734.78;5058392;28;20028;-71
2022/02/27 10:26:35;;;;;;;7.65;3.60;;;;;;;4.77;53.51;97735.19;5075980;28;20048;-67
2022/02/27 10:29:12;;;;;;;8.95;4.45;;;;;;;4.72;52.78;97749.69;5073624;28;20047;-67
2022/02/27 10:31:46;;;;;;;6.53;4.03;;;;;;;5.06;52.05;97750.34;5070977;28;20104;-71
2022/02/27 10:34:21;;;;;;;5.38;3.80;;;;;;;6.01;50.25;97738.66;5065077;28;20049;-66
2022/02/27 10:37:07;;;;;;;4.68;3.00;;;;;;;5.66;50.49;97725.59;5072859;28;20036;-68
2022/02/27 10:39:38;;;;;;;6.63;3.40;;;;;;;6.28;49.51;97732.22;5067342;28;20037;-67
2022/02/27 10:42:14;;;;;;;9.35;3.92;;;;;;;4.88;51.64;97705.94;5060538;28;20032;-66
2022/02/27 10:44:51;;;;;;;12.18;3.47;;;;;;;5.39;51.74;97718.38;5055348;28;20025;-66
2022/02/27 10:47:19;;;;;;;7.07;3.80;;;;;;;4.94;51.10;97713.66;5031422;28;20104;-68
2022/02/27 10:49:46;;;;;;;7.30;3.85;;;;;;;4.86;50.84;97722.56;5044919;28;20052;-71
2022/02/27 10:52:22;;;;;;;7.53;3.30;;;;;;;4.84;50.38;97722.03;5055658;28;20036;-67
2022/02/27 10:54:52;;;;;;;11.70;5.55;;;;;;;5.09;50.41;97730.72;5034590;28;20107;-67
2022/02/27 10:57:45;;;;;;;7.78;3.55;;;;;;;5.44;50.85;97690.25;5046953;28;20036;-67
2022/02/27 11:00:28;;;;;;;7.55;3.70;;;;;;;5.20;50.98;97701.44;5030178;28;20494;-67
2022/02/27 11:03:02;;;;;;;7.07;3.40;;;;;;;5.57;51.30;97708.44;5032876;28;20045;-69
2022/02/27 11:05:30;;;;;;;7.32;3.70;;;;;;;6.44;49.28;97703.47;5040735;28;20028;-66
2022/02/27 11:07:58;;;;;;;5.55;3.30;;;;;;;5.93;49.17;97694.75;5034445;28;20035;-66
2022/02/27 11:10:29;;;;;;;6.70;3.60;;;;;;;5.41;49.14;97683.53;5052521;28;20393;-68
2022/02/27 11:13:00;;;;;;;12.13;5.40;;;;;;;5.78;50.75;97683.47;5034845;28;20044;-66
2022/02/27 11:15:26;;;;;;;6.05;3.67;;;;;;;5.48;49.70;97686.63;5052267;28;20025;-70
2022/02/27 11:17:51;;;;;;;8.05;3.92;;;;;;;6.28;50.13;97686.78;5053022;28;20107;-68
2022/02/27 11:20:19;;;;;;;8.45;3.58;;;;;;;5.86;52.40;97675.34;5049351;28;20160;-69
2022/02/27 11:22:49;;;;;;;9.75;3.92;;;;;;;6.56;47.52;97672.16;5044812;28;20098;-66
2022/02/27 11:25:16;;;;;;;5.60;3.33;;;;;;;6.14;49.51;97661.63;5063426;28;20035;-65
2022/02/27 11:27:50;;;;;;;7.10;4.05;;;;;;;6.24;47.94;97653.16;5034944;28;20034;-67